Time;durP1;ratioP1;P1;durP2;ratioP2;P2;SDS_P1;SDS_P2;PMS_P1;PMS_P2;Temp;Humidity;BMP_temperature;BMP_pressure;BME280_temperature;BME280_humidity;BME280_pressure;Samples;Min_cycle;Max_cycle;Signal;HPM_P1;HPM_P2
2022/10/08 00:18:25;;;;;;;11.80;7.38;;;;;;;;;;1441091;26;20050;-72
2022/10/08 00:20:52;;;;;;;15.57;7.53;;;;;;;;;;5010630;28;20045;-73
2022/10/08 00:23:18;;;;;;;15.63;7.57;;;;;;;;;;4992696;28;20054;-72
2022/10/08 00:25:44;;;;;;;9.23;6.95;;;;;;;;;;5010492;28;20057;-72
2022/10/08 00:28:10;;;;;;;13.60;7.63;;;;;;;;;;4992992;28;20049;-72
2022/10/08 00:30:36;;;;;;;8.93;6.13;;;;;;;;;;5009544;28;20076;-71
2022/10/08 00:33:02;;;;;;;13.20;7.00;;;;;;;;;;5010450;28;20076;-73
2022/10/08 00:35:28;;;;;;;13.57;7.07;;;;;;;;;;5011869;28;20046;-71
2022/10/08 00:37:54;;;;;;;17.35;6.72;;;;;;;;;;5011400;28;20042;-72
2022/10/08 00:40:20;;;;;;;16.55;6.63;;;;;;;;;;4992484;28;20457;-71
2022/10/08 00:42:46;;;;;;;16.92;6.75;;;;;;;;;;5010437;28;20049;-72
2022/10/08 00:45:12;;;;;;;13.60;6.55;;;;;;;;;;5010022;28;20038;-71
2022/10/08 00:47:41;;;;;;;18.60;7.32;;;;;;;;;;4992616;28;20046;-71
2022/10/08 00:50:11;;;;;;;12.07;6.90;;;;;;;;;;4992602;28;20116;-72
2022/10/08 00:52:38;;;;;;;15.32;6.30;;;;;;;;;;5009939;28;20034;-71
2022/10/08 00:55:05;;;;;;;12.75;6.30;;;;;;;;;;5008581;28;20081;-72
2022/10/08 00:57:32;;;;;;;15.25;6.50;;;;;;;;;;5009792;28;20045;-72
2022/10/08 00:59:58;;;;;;;14.40;6.50;;;;;;;;;;4972804;28;20053;-72
2022/10/08 01:02:24;;;;;;;10.82;5.90;;;;;;;;;;4988679;28;20685;-71
2022/10/08 01:04:50;;;;;;;13.30;6.43;;;;;;;;;;4990440;28;20531;-71
2022/10/08 01:07:19;;;;;;;12.52;6.25;;;;;;;;;;4972716;28;20128;-70
2022/10/08 01:10:00;;;;;;;12.23;6.40;;;;;;;;;;4972765;28;20130;-72
2022/10/08 01:12:40;;;;;;;12.50;6.20;;;;;;;;;;4972730;28;20046;-72
2022/10/08 01:15:07;;;;;;;12.43;6.00;;;;;;;;;;4990036;28;20121;-72
2022/10/08 01:17:36;;;;;;;14.25;6.00;;;;;;;;;;4990255;28;20054;-73
2022/10/08 01:20:25;;;;;;;11.88;5.78;;;;;;;;;;4991452;28;20526;-72
2022/10/08 01:23:05;;;;;;;9.45;6.03;;;;;;;;;;4983242;28;20052;-72
2022/10/08 01:25:50;;;;;;;12.43;5.47;;;;;;;;;;4988840;28;20049;-72
2022/10/08 01:28:23;;;;;;;17.05;6.57;;;;;;;;;;4989841;28;20125;-73
2022/10/08 01:30:52;;;;;;;13.70;5.72;;;;;;;;;;4989639;28;20053;-71
2022/10/08 01:33:21;;;;;;;12.93;6.78;;;;;;;;;;4989779;28;20046;-72
2022/10/08 01:35:49;;;;;;;13.32;5.68;;;;;;;;;;4988530;28;20122;-73
2022/10/08 01:38:15;;;;;;;8.85;5.95;;;;;;;;;;4988303;28;20046;-71
2022/10/08 01:40:41;;;;;;;11.60;6.45;;;;;;;;;;4988162;28;20043;-73
2022/10/08 01:43:07;;;;;;;11.50;5.10;;;;;;;;;;4971094;28;20048;-73
2022/10/08 01:45:33;;;;;;;10.07;5.18;;;;;;;;;;4989261;28;20038;-72
2022/10/08 01:48:00;;;;;;;20.85;5.55;;;;;;;;;;4972224;28;20050;-72
2022/10/08 01:50:31;;;;;;;7.68;5.68;;;;;;;;;;4989348;28;20056;-72
2022/10/08 01:52:58;;;;;;;7.15;5.00;;;;;;;;;;4989779;28;20101;-72
2022/10/08 01:55:28;;;;;;;11.35;5.32;;;;;;;;;;4989430;28;20034;-73
2022/10/08 01:57:56;;;;;;;15.10;5.95;;;;;;;;;;4989339;28;20042;-72
2022/10/08 02:00:23;;;;;;;8.15;5.32;;;;;;;;;;4971421;28;20050;-72
2022/10/08 02:02:49;;;;;;;12.32;4.90;;;;;;;;;;4971832;28;20046;-73
2022/10/08 02:05:14;;;;;;;9.40;5.65;;;;;;;;;;4971805;28;20594;-73
2022/10/08 02:07:41;;;;;;;8.73;5.70;;;;;;;;;;4971324;28;20238;-72
2022/10/08 02:10:14;;;;;;;10.52;5.68;;;;;;;;;;4971206;28;20046;-72
2022/10/08 02:12:40;;;;;;;13.30;5.90;;;;;;;;;;4988777;28;20520;-71
2022/10/08 02:15:07;;;;;;;12.85;7.80;;;;;;;;;;4987803;28;20613;-72
2022/10/08 02:17:39;;;;;;;12.13;6.95;;;;;;;;;;4987311;28;20057;-71
2022/10/08 02:20:19;;;;;;;10.13;6.00;;;;;;;;;;4988715;28;20061;-72
2022/10/08 02:23:06;;;;;;;7.18;3.10;;;;;;;;;;4988859;28;20534;-72
2022/10/08 02:25:37;;;;;;;14.60;5.80;;;;;;;;;;4988759;28;20591;-72
2022/10/08 02:28:22;;;;;;;13.98;5.03;;;;;;;;;;4989827;28;20042;-72
2022/10/08 02:30:49;;;;;;;13.85;5.00;;;;;;;;;;4991186;28;20241;-72
2022/10/08 02:33:17;;;;;;;8.93;5.22;;;;;;;;;;4987595;28;20040;-72
2022/10/08 02:35:47;;;;;;;17.15;6.15;;;;;;;;;;4987416;28;20042;-73
2022/10/08 02:38:15;;;;;;;10.30;5.07;;;;;;;;;;4987496;28;20042;-72
2022/10/08 02:40:41;;;;;;;12.35;5.20;;;;;;;;;;4988372;28;20514;-72
2022/10/08 02:43:08;;;;;;;13.57;5.47;;;;;;;;;;4987332;28;20049;-73
2022/10/08 02:45:41;;;;;;;14.20;5.38;;;;;;;;;;4987103;28;20054;-72
2022/10/08 02:48:10;;;;;;;17.77;5.13;;;;;;;;;;4988489;28;20050;-73
2022/10/08 02:50:37;;;;;;;7.57;4.85;;;;;;;;;;4986844;28;20054;-72
2022/10/08 02:53:03;;;;;;;10.77;5.15;;;;;;;;;;4988332;28;20125;-72
2022/10/08 02:55:36;;;;;;;11.50;5.13;;;;;;;;;;4961011;28;20145;-73
2022/10/08 02:58:04;;;;;;;8.90;4.63;;;;;;;;;;4961193;28;20045;-72
2022/10/08 03:00:33;;;;;;;11.65;5.45;;;;;;;;;;4977068;28;20050;-72
2022/10/08 03:03:08;;;;;;;9.68;4.97;;;;;;;;;;4994873;28;20053;-73
2022/10/08 03:05:33;;;;;;;10.13;5.20;;;;;;;;;;4993512;28;20053;-73
2022/10/08 03:07:59;;;;;;;13.50;4.88;;;;;;;;;;4994817;28;20043;-72
2022/10/08 03:10:25;;;;;;;13.05;5.72;;;;;;;;;;4993316;28;20145;-72
2022/10/08 03:12:58;;;;;;;11.52;5.05;;;;;;;;;;4977346;28;20046;-72
2022/10/08 03:15:24;;;;;;;11.18;5.22;;;;;;;;;;4994826;28;20518;-72
2022/10/08 03:17:50;;;;;;;11.05;5.30;;;;;;;;;;4993406;28;20045;-72
2022/10/08 03:20:16;;;;;;;10.07;5.45;;;;;;;;;;4994675;28;20054;-72
2022/10/08 03:22:42;;;;;;;6.90;4.85;;;;;;;;;;4994340;28;20042;-73
2022/10/08 03:25:07;;;;;;;9.52;5.00;;;;;;;;;;4993286;28;20050;-73
2022/10/08 03:27:36;;;;;;;18.45;5.90;;;;;;;;;;4994588;28;20046;-72
2022/10/08 03:30:03;;;;;;;10.63;5.13;;;;;;;;;;4994477;28;20066;-72
2022/10/08 03:32:29;;;;;;;15.38;5.03;;;;;;;;;;4976988;28;20046;-71
2022/10/08 03:34:55;;;;;;;10.88;5.00;;;;;;;;;;4993343;28;20049;-71
2022/10/08 03:37:21;;;;;;;10.82;5.43;;;;;;;;;;4994431;28;20683;-71
2022/10/08 03:39:47;;;;;;;7.43;4.78;;;;;;;;;;4994336;28;20109;-73
2022/10/08 03:42:12;;;;;;;8.27;4.80;;;;;;;;;;4994398;28;20061;-72
2022/10/08 03:44:38;;;;;;;12.60;5.03;;;;;;;;;;4994159;28;20573;-71
2022/10/08 03:47:04;;;;;;;8.98;4.25;;;;;;;;;;4994327;28;20066;-72
2022/10/08 03:49:30;;;;;;;8.30;4.05;;;;;;;;;;4994214;28;20042;-71
2022/10/08 03:51:56;;;;;;;9.73;4.10;;;;;;;;;;4993193;28;20145;-72
2022/10/08 03:54:22;;;;;;;8.80;4.55;;;;;;;;;;4977018;28;20038;-72
2022/10/08 03:56:47;;;;;;;8.50;4.50;;;;;;;;;;4992807;28;20096;-73
2022/10/08 03:59:13;;;;;;;9.95;5.30;;;;;;;;;;4994453;28;20133;-72
2022/10/08 04:01:39;;;;;;;7.00;4.40;;;;;;;;;;4994047;28;20053;-72
2022/10/08 04:04:05;;;;;;;8.88;4.72;;;;;;;;;;4994144;28;20050;-72
2022/10/08 04:06:31;;;;;;;9.18;4.07;;;;;;;;;;4972518;28;20068;-72
2022/10/08 04:08:59;;;;;;;6.20;3.92;;;;;;;;;;4991233;28;20050;-71
2022/10/08 04:11:26;;;;;;;13.80;4.38;;;;;;;;;;4991160;28;20065;-71
2022/10/08 04:13:52;;;;;;;11.77;4.80;;;;;;;;;;4973810;28;20046;-72
2022/10/08 04:16:18;;;;;;;13.40;4.50;;;;;;;;;;4991025;28;20046;-72
2022/10/08 04:18:44;;;;;;;10.30;3.92;;;;;;;;;;4990767;28;20766;-72
2022/10/08 04:21:11;;;;;;;12.90;4.43;;;;;;;;;;4973893;28;20053;-73
2022/10/08 04:23:37;;;;;;;9.48;4.32;;;;;;;;;;4991825;28;20049;-72
2022/10/08 04:26:03;;;;;;;8.93;4.25;;;;;;;;;;4991149;28;20057;-72
2022/10/08 04:28:29;;;;;;;13.13;4.50;;;;;;;;;;4990772;28;20034;-71
2022/10/08 04:30:56;;;;;;;5.80;4.38;;;;;;;;;;4990764;28;20580;-71
2022/10/08 04:33:22;;;;;;;9.02;3.80;;;;;;;;;;4989656;28;20054;-71
2022/10/08 04:35:48;;;;;;;10.70;4.68;;;;;;;;;;4973170;28;20053;-72
2022/10/08 04:38:14;;;;;;;8.88;4.28;;;;;;;;;;4990737;28;20414;-72
2022/10/08 04:40:40;;;;;;;11.65;4.22;;;;;;;;;;4989249;28;20053;-72
2022/10/08 04:43:05;;;;;;;13.50;4.22;;;;;;;;;;4990333;28;20034;-72
2022/10/08 04:45:31;;;;;;;13.60;4.60;;;;;;;;;;4990368;28;20074;-73
2022/10/08 04:47:57;;;;;;;13.10;5.20;;;;;;;;;;4990556;28;20081;-72
2022/10/08 04:50:23;;;;;;;9.40;3.90;;;;;;;;;;4990496;28;20051;-73
2022/10/08 04:52:49;;;;;;;5.53;4.55;;;;;;;;;;4990242;28;20069;-72
2022/10/08 04:55:15;;;;;;;7.93;4.60;;;;;;;;;;4990501;28;20046;-72
2022/10/08 04:57:41;;;;;;;9.50;4.55;;;;;;;;;;4990203;28;20045;-71
2022/10/08 05:00:07;;;;;;;11.10;4.68;;;;;;;;;;4964009;28;20053;-71
2022/10/08 05:02:33;;;;;;;13.48;4.47;;;;;;;;;;4978443;28;20157;-71
2022/10/08 05:04:59;;;;;;;7.60;4.45;;;;;;;;;;4978161;28;20031;-71
2022/10/08 05:07:28;;;;;;;8.75;4.57;;;;;;;;;;4962968;28;20504;-72
2022/10/08 05:09:53;;;;;;;8.75;4.63;;;;;;;;;;4978256;28;20092;-72
2022/10/08 05:12:19;;;;;;;7.05;4.95;;;;;;;;;;4979282;28;20050;-72
2022/10/08 05:14:45;;;;;;;7.97;5.03;;;;;;;;;;4977889;28;20873;-71
2022/10/08 05:17:11;;;;;;;8.65;4.50;;;;;;;;;;4970026;28;20078;-71
2022/10/08 05:19:37;;;;;;;12.75;4.78;;;;;;;;;;4977708;28;20113;-71
2022/10/08 05:22:03;;;;;;;10.75;4.72;;;;;;;;;;4989621;28;20054;-71
2022/10/08 05:24:29;;;;;;;9.40;4.65;;;;;;;;;;4989982;28;20132;-72
2022/10/08 05:26:55;;;;;;;11.57;4.45;;;;;;;;;;4988311;28;20121;-71
2022/10/08 05:29:21;;;;;;;11.70;4.25;;;;;;;;;;4989619;28;20448;-72
2022/10/08 05:31:47;;;;;;;11.10;5.05;;;;;;;;;;4989400;28;20578;-71
2022/10/08 05:34:12;;;;;;;18.55;4.60;;;;;;;;;;4972450;28;20038;-71
2022/10/08 05:36:38;;;;;;;13.48;5.35;;;;;;;;;;4989450;28;20042;-72
2022/10/08 05:39:04;;;;;;;7.93;4.38;;;;;;;;;;4989356;28;20047;-75
2022/10/08 05:41:31;;;;;;;9.98;4.38;;;;;;;;;;4955905;28;20057;-75
2022/10/08 05:43:57;;;;;;;10.68;4.38;;;;;;;;;;4972280;28;20046;-76
2022/10/08 05:46:24;;;;;;;13.63;4.35;;;;;;;;;;4989389;28;20046;-76
2022/10/08 05:48:53;;;;;;;11.45;4.55;;;;;;;;;;4988145;28;20077;-75
2022/10/08 05:51:19;;;;;;;16.20;4.90;;;;;;;;;;4987997;28;20050;-75
2022/10/08 05:53:46;;;;;;;10.23;4.45;;;;;;;;;;4949292;28;20279;-73
2022/10/08 05:56:12;;;;;;;14.02;4.43;;;;;;;;;;4985008;28;20042;-74
2022/10/08 05:58:38;;;;;;;9.00;5.13;;;;;;;;;;4988255;28;20049;-74
2022/10/08 06:01:14;;;;;;;20.80;5.45;;;;;;;;;;4970692;28;20258;-74
2022/10/08 06:03:40;;;;;;;9.65;4.43;;;;;;;;;;4984989;28;20045;-75
2022/10/08 06:06:06;;;;;;;8.32;4.65;;;;;;;;;;4963532;28;20469;-76
2022/10/08 06:08:33;;;;;;;10.85;3.83;;;;;;;;;;4945753;28;20045;-75
2022/10/08 06:10:59;;;;;;;8.63;4.35;;;;;;;;;;4981538;28;20054;-75
2022/10/08 06:13:25;;;;;;;13.60;4.68;;;;;;;;;;4986769;28;20042;-74
2022/10/08 06:15:57;;;;;;;8.10;4.05;;;;;;;;;;4975383;28;20043;-74
2022/10/08 06:18:23;;;;;;;10.82;5.03;;;;;;;;;;4977511;28;20050;-75
2022/10/08 06:20:49;;;;;;;7.38;4.18;;;;;;;;;;4960018;28;20082;-75
2022/10/08 06:23:16;;;;;;;14.05;4.72;;;;;;;;;;4973323;28;20047;-76
2022/10/08 06:25:41;;;;;;;8.27;5.82;;;;;;;;;;4968687;28;20574;-75
2022/10/08 06:28:07;;;;;;;15.25;5.78;;;;;;;;;;4968230;28;20145;-76
2022/10/08 06:30:33;;;;;;;17.98;4.75;;;;;;;;;;4935243;28;20047;-75
2022/10/08 06:32:59;;;;;;;10.90;4.97;;;;;;;;;;4968783;28;20073;-75
2022/10/08 06:35:25;;;;;;;13.27;5.88;;;;;;;;;;4951601;28;20054;-76
2022/10/08 06:37:51;;;;;;;17.42;5.70;;;;;;;;;;4968438;28;20050;-76
2022/10/08 06:40:17;;;;;;;6.72;4.85;;;;;;;;;;4967635;28;20046;-75
2022/10/08 06:42:42;;;;;;;10.75;4.65;;;;;;;;;;4967488;28;20589;-76
2022/10/08 06:45:09;;;;;;;9.27;4.13;;;;;;;;;;4951070;28;20051;-76
2022/10/08 06:47:35;;;;;;;8.35;3.97;;;;;;;;;;4951251;28;20049;-76
2022/10/08 06:50:01;;;;;;;8.45;3.85;;;;;;;;;;4953205;28;20122;-77
2022/10/08 06:52:27;;;;;;;7.60;4.07;;;;;;;;;;4948024;28;20043;-76
2022/10/08 06:54:53;;;;;;;7.97;3.72;;;;;;;;;;4966748;28;20082;-76
2022/10/08 06:57:19;;;;;;;6.55;3.63;;;;;;;;;;4934140;28;20053;-76
2022/10/08 06:59:45;;;;;;;10.15;3.53;;;;;;;;;;4949715;28;20463;-76
2022/10/08 07:02:11;;;;;;;11.45;3.67;;;;;;;;;;4949771;28;20728;-76
2022/10/08 07:04:37;;;;;;;9.45;3.72;;;;;;;;;;4955014;28;20034;-77
2022/10/08 07:07:03;;;;;;;14.90;3.95;;;;;;;;;;4956161;28;20069;-76
2022/10/08 07:09:31;;;;;;;11.68;3.72;;;;;;;;;;4973102;28;20053;-76
2022/10/08 07:11:58;;;;;;;8.60;3.78;;;;;;;;;;4965808;28;20057;-77
2022/10/08 07:14:24;;;;;;;9.30;3.72;;;;;;;;;;4966729;28;20053;-77
2022/10/08 07:16:50;;;;;;;13.98;3.28;;;;;;;;;;4942695;28;20042;-77
2022/10/08 07:19:16;;;;;;;7.50;3.90;;;;;;;;;;4955169;28;20046;-76
2022/10/08 07:21:42;;;;;;;10.98;3.45;;;;;;;;;;4976686;28;20054;-77
2022/10/08 07:24:07;;;;;;;6.68;3.55;;;;;;;;;;4961166;28;20042;-77
2022/10/08 07:26:33;;;;;;;6.13;3.20;;;;;;;;;;4976235;28;20049;-77
2022/10/08 07:29:03;;;;;;;10.55;3.20;;;;;;;;;;4977446;28;20469;-77
2022/10/08 07:31:30;;;;;;;7.55;3.60;;;;;;;;;;4945792;28;20156;-77
2022/10/08 07:33:56;;;;;;;7.85;3.97;;;;;;;;;;4935404;28;20083;-77
2022/10/08 07:36:22;;;;;;;10.57;3.50;;;;;;;;;;4935673;28;20127;-77
2022/10/08 07:38:52;;;;;;;6.28;2.70;;;;;;;;;;4968495;28;20038;-77
2022/10/08 07:41:18;;;;;;;10.23;3.45;;;;;;;;;;4937655;28;20047;-77
2022/10/08 07:43:44;;;;;;;3.65;2.70;;;;;;;;;;4938974;28;20393;-76
2022/10/08 07:46:10;;;;;;;11.23;3.35;;;;;;;;;;4938567;28;20066;-77
2022/10/08 07:48:36;;;;;;;5.03;3.47;;;;;;;;;;4955164;28;20042;-77
2022/10/08 07:51:12;;;;;;;11.93;3.33;;;;;;;;;;4973842;28;20042;-77
2022/10/08 07:53:38;;;;;;;8.93;3.33;;;;;;;;;;4957802;28;20046;-78
2022/10/08 07:56:04;;;;;;;2.80;2.17;;;;;;;;;;4954408;28;20046;-77
2022/10/08 07:58:31;;;;;;;3.78;3.10;;;;;;;;;;4967014;28;20048;-77
2022/10/08 08:00:57;;;;;;;7.80;3.08;;;;;;;;;;4948295;28;20434;-77
2022/10/08 08:03:23;;;;;;;9.23;3.22;;;;;;;;;;4962035;28;20035;-77
2022/10/08 08:05:49;;;;;;;6.45;3.28;;;;;;;;;;4970296;28;20039;-77
2022/10/08 08:08:15;;;;;;;5.57;3.22;;;;;;;;;;4964926;28;20035;-77
2022/10/08 08:10:41;;;;;;;8.27;3.72;;;;;;;;;;4985124;28;20046;-78
2022/10/08 08:13:07;;;;;;;5.65;3.10;;;;;;;;;;4980221;28;20142;-77
2022/10/08 08:15:33;;;;;;;5.60;3.00;;;;;;;;;;4964162;28;20053;-78
2022/10/08 08:17:59;;;;;;;7.22;2.83;;;;;;;;;;4980675;28;20038;-78
2022/10/08 08:20:24;;;;;;;4.82;3.10;;;;;;;;;;4977724;28;20154;-77
2022/10/08 08:22:50;;;;;;;8.38;3.10;;;;;;;;;;4980582;28;20121;-77
2022/10/08 08:25:16;;;;;;;5.53;2.78;;;;;;;;;;4951509;28;20398;-78
2022/10/08 08:27:42;;;;;;;4.03;2.63;;;;;;;;;;4944965;28;20050;-77
2022/10/08 08:30:09;;;;;;;4.03;2.28;;;;;;;;;;4975465;28;20762;-78
2022/10/08 08:32:35;;;;;;;4.50;2.67;;;;;;;;;;4953847;28;20030;-77
2022/10/08 08:35:01;;;;;;;6.63;2.35;;;;;;;;;;4989113;28;20092;-77
2022/10/08 08:37:28;;;;;;;4.43;2.40;;;;;;;;;;4960453;28;20403;-76
2022/10/08 08:39:54;;;;;;;6.85;2.85;;;;;;;;;;4977958;28;20070;-77
2022/10/08 08:42:30;;;;;;;4.88;1.88;;;;;;;;;;4945885;28;20043;-77
2022/10/08 08:44:56;;;;;;;6.72;2.65;;;;;;;;;;4964196;28;20046;-76
2022/10/08 08:47:33;;;;;;;9.05;2.65;;;;;;;;;;4951604;28;20053;-76
2022/10/08 08:49:59;;;;;;;4.85;2.25;;;;;;;;;;4962363;28;20434;-77
2022/10/08 08:52:26;;;;;;;4.93;2.10;;;;;;;;;;4987354;28;20053;-76
2022/10/08 08:54:53;;;;;;;5.40;2.40;;;;;;;;;;4972386;28;20042;-77
2022/10/08 08:57:19;;;;;;;5.25;2.80;;;;;;;;;;4973009;28;20034;-76
2022/10/08 08:59:46;;;;;;;9.25;3.05;;;;;;;;;;4990534;28;20038;-75
2022/10/08 09:02:17;;;;;;;4.32;2.50;;;;;;;;;;4951335;28;20840;-74
2022/10/08 09:04:47;;;;;;;6.25;2.58;;;;;;;;;;4961113;28;20042;-74
2022/10/08 09:07:17;;;;;;;4.40;2.42;;;;;;;;;;4972145;28;20558;-75
2022/10/08 09:09:44;;;;;;;2.80;1.95;;;;;;;;;;4968669;28;20515;-74
2022/10/08 09:12:23;;;;;;;11.48;2.55;;;;;;;;;;4952390;28;20046;-75
2022/10/08 09:14:52;;;;;;;4.40;1.90;;;;;;;;;;4970442;28;20039;-74
2022/10/08 09:17:18;;;;;;;8.32;2.20;;;;;;;;;;4972213;28;20046;-74
2022/10/08 09:19:45;;;;;;;4.22;2.70;;;;;;;;;;4971641;28;20086;-75
2022/10/08 09:22:21;;;;;;;3.40;2.47;;;;;;;;;;4989032;28;20137;-74
2022/10/08 09:24:47;;;;;;;4.95;2.30;;;;;;;;;;4989209;28;20050;-75
2022/10/08 09:27:13;;;;;;;11.65;2.70;;;;;;;;;;4971683;28;20500;-74
2022/10/08 09:29:39;;;;;;;5.53;2.38;;;;;;;;;;4955535;28;20092;-74
2022/10/08 09:32:06;;;;;;;4.97;2.42;;;;;;;;;;4955712;28;20539;-75
2022/10/08 09:34:32;;;;;;;4.50;2.50;;;;;;;;;;4954722;28;20124;-76
2022/10/08 09:37:04;;;;;;;5.55;2.90;;;;;;;;;;4939358;28;20220;-76
2022/10/08 09:39:31;;;;;;;5.03;2.40;;;;;;;;;;4971571;28;20119;-75
2022/10/08 09:42:03;;;;;;;5.20;2.63;;;;;;;;;;4986173;28;20203;-77
2022/10/08 09:44:49;;;;;;;7.30;2.35;;;;;;;;;;4968066;28;20073;-76
2022/10/08 09:47:15;;;;;;;5.30;2.30;;;;;;;;;;4971154;28;20082;-77
2022/10/08 09:49:41;;;;;;;5.45;2.45;;;;;;;;;;4969640;28;20044;-78
2022/10/08 09:52:18;;;;;;;4.40;2.15;;;;;;;;;;4966056;28;20076;-78
2022/10/08 09:54:47;;;;;;;8.75;2.67;;;;;;;;;;4935579;28;20050;-77
2022/10/08 09:57:16;;;;;;;6.00;2.17;;;;;;;;;;4935253;28;20079;-77
2022/10/08 09:59:47;;;;;;;4.97;2.30;;;;;;;;;;4953247;28;20047;-77
2022/10/08 10:02:22;;;;;;;4.15;2.05;;;;;;;;;;4935536;28;20067;-77
2022/10/08 10:04:52;;;;;;;4.93;3.78;;;;;;;;;;4975750;28;20122;-76
2022/10/08 10:07:19;;;;;;;7.38;2.67;;;;;;;;;;4972047;28;20039;-77
2022/10/08 10:09:46;;;;;;;4.15;3.00;;;;;;;;;;4937459;28;20507;-77
2022/10/08 10:12:18;;;;;;;3.28;2.97;;;;;;;;;;4953819;28;20043;-78
2022/10/08 10:14:49;;;;;;;4.65;2.60;;;;;;;;;;4972629;28;20062;-78
2022/10/08 10:17:15;;;;;;;2.55;2.22;;;;;;;;;;4973157;28;20046;-77
2022/10/08 10:19:49;;;;;;;5.60;2.50;;;;;;;;;;4973202;28;20375;-77
2022/10/08 10:22:26;;;;;;;6.63;2.25;;;;;;;;;;4957317;28;20515;-77
2022/10/08 10:24:55;;;;;;;4.90;2.60;;;;;;;;;;4973246;28;20543;-77
2022/10/08 10:27:29;;;;;;;3.13;2.38;;;;;;;;;;4990476;28;20042;-77
2022/10/08 10:30:03;;;;;;;7.03;2.70;;;;;;;;;;4956936;28;20046;-78
2022/10/08 10:32:31;;;;;;;6.95;2.60;;;;;;;;;;4989263;28;20093;-77
2022/10/08 10:35:01;;;;;;;6.07;2.30;;;;;;;;;;4990599;28;20061;-78
2022/10/08 10:37:40;;;;;;;2.10;1.90;;;;;;;;;;4957632;28;20047;-77
2022/10/08 10:40:15;;;;;;;5.13;3.15;;;;;;;;;;4973001;28;20178;-78
2022/10/08 10:42:57;;;;;;;6.45;2.05;;;;;;;;;;4990319;28;20485;-78
2022/10/08 10:45:24;;;;;;;2.63;1.90;;;;;;;;;;4956923;28;20053;-78
2022/10/08 10:47:50;;;;;;;5.45;2.25;;;;;;;;;;4972917;28;20115;-77
2022/10/08 10:50:21;;;;;;;4.82;2.45;;;;;;;;;;4957005;28;20129;-77
2022/10/08 10:52:50;;;;;;;4.13;2.15;;;;;;;;;;4974626;28;20077;-77
2022/10/08 10:55:17;;;;;;;5.63;2.42;;;;;;;;;;4990647;28;20611;-77
2022/10/08 10:57:42;;;;;;;5.20;2.80;;;;;;;;;;4972919;28;20046;-78
2022/10/08 11:00:32;;;;;;;3.00;2.17;;;;;;;;;;4990335;28;20042;-77
2022/10/08 11:02:58;;;;;;;6.30;2.65;;;;;;;;;;4946450;28;20054;-77
2022/10/08 11:05:24;;;;;;;7.38;2.63;;;;;;;;;;4972775;28;20157;-78
2022/10/08 11:07:51;;;;;;;3.53;2.15;;;;;;;;;;4989972;28;20049;-78
2022/10/08 11:10:34;;;;;;;4.80;2.67;;;;;;;;;;4990244;28;20047;-78
2022/10/08 11:13:10;;;;;;;5.43;2.47;;;;;;;;;;4990046;28;20045;-78
2022/10/08 11:15:40;;;;;;;5.68;2.63;;;;;;;;;;4975900;28;20030;-78
2022/10/08 11:18:19;;;;;;;8.75;3.65;;;;;;;;;;4976570;28;20077;-77
2022/10/08 11:20:51;;;;;;;6.07;2.88;;;;;;;;;;4994031;28;20062;-78
2022/10/08 11:23:26;;;;;;;6.93;3.15;;;;;;;;;;4994066;28;20051;-79
2022/10/08 11:25:52;;;;;;;4.00;2.75;;;;;;;;;;4976642;28;20530;-78
2022/10/08 11:28:37;;;;;;;4.88;2.95;;;;;;;;;;4976425;28;20074;-78
2022/10/08 11:31:21;;;;;;;9.35;3.67;;;;;;;;;;4976355;28;20056;-78
2022/10/08 11:33:47;;;;;;;4.88;2.33;;;;;;;;;;4993587;28;20046;-78
2022/10/08 11:36:16;;;;;;;3.72;2.40;;;;;;;;;;4993926;28;20581;-77
2022/10/08 11:38:45;;;;;;;3.72;2.33;;;;;;;;;;4993704;28;20046;-78
2022/10/08 11:41:14;;;;;;;15.20;5.03;;;;;;;;;;4993614;28;20050;-78
2022/10/08 11:43:43;;;;;;;7.75;3.10;;;;;;;;;;4993682;28;20054;-78
2022/10/08 11:46:11;;;;;;;3.83;2.55;;;;;;;;;;4993571;28;20042;-78
2022/10/08 11:48:37;;;;;;;3.78;1.85;;;;;;;;;;4993670;28;20105;-79
2022/10/08 11:51:19;;;;;;;5.30;2.50;;;;;;;;;;4982830;28;20038;-78
2022/10/08 11:54:03;;;;;;;5.47;2.25;;;;;;;;;;4985021;28;20054;-77
2022/10/08 11:56:29;;;;;;;3.78;2.55;;;;;;;;;;4994217;28;20053;-77
2022/10/08 11:58:56;;;;;;;10.15;3.03;;;;;;;;;;4993444;28;20473;-78
2022/10/08 12:01:21;;;;;;;4.68;2.10;;;;;;;;;;4976386;28;20537;-78
2022/10/08 12:04:04;;;;;;;3.33;2.55;;;;;;;;;;4978989;28;20046;-77
2022/10/08 12:06:32;;;;;;;5.05;2.55;;;;;;;;;;5002155;28;20518;-78
2022/10/08 12:08:58;;;;;;;4.88;3.10;;;;;;;;;;4985404;28;20076;-78
2022/10/08 12:11:30;;;;;;;4.95;2.72;;;;;;;;;;4996921;28;20108;-78
2022/10/08 12:14:12;;;;;;;4.28;2.75;;;;;;;;;;4976413;28;20448;-78
2022/10/08 12:16:47;;;;;;;8.30;4.85;;;;;;;;;;4975964;28;20042;-78
2022/10/08 12:19:36;;;;;;;5.63;3.15;;;;;;;;;;4992704;28;20141;-78
2022/10/08 12:22:03;;;;;;;4.90;3.10;;;;;;;;;;4992910;28;20050;-77
2022/10/08 12:24:37;;;;;;;2.72;2.53;;;;;;;;;;4992819;28;20038;-78
2022/10/08 12:27:16;;;;;;;5.28;2.60;;;;;;;;;;4991911;28;20046;-78
2022/10/08 12:30:11;;;;;;;9.52;2.80;;;;;;;;;;4975494;28;20430;-77
2022/10/08 12:32:38;;;;;;;2.95;2.30;;;;;;;;;;4972095;28;20079;-77
2022/10/08 12:35:04;;;;;;;4.63;2.55;;;;;;;;;;4992469;28;20539;-77
2022/10/08 12:37:37;;;;;;;5.25;3.85;;;;;;;;;;4975455;28;20046;-78
2022/10/08 12:40:08;;;;;;;6.88;3.60;;;;;;;;;;4992742;28;20065;-77
2022/10/08 12:42:34;;;;;;;12.52;4.10;;;;;;;;;;4992542;28;20128;-78
2022/10/08 12:45:00;;;;;;;5.82;3.60;;;;;;;;;;4975171;28;20038;-78
2022/10/08 12:47:26;;;;;;;4.13;3.38;;;;;;;;;;4975116;28;20507;-77
2022/10/08 12:49:55;;;;;;;6.78;3.30;;;;;;;;;;4992386;28;20069;-78
2022/10/08 12:52:21;;;;;;;6.25;2.70;;;;;;;;;;4992388;28;20109;-78
2022/10/08 12:54:57;;;;;;;2.60;2.17;;;;;;;;;;4974944;28;20108;-78
2022/10/08 12:57:25;;;;;;;7.47;5.63;;;;;;;;;;4992307;28;20967;-78
2022/10/08 12:59:51;;;;;;;6.07;3.85;;;;;;;;;;4992267;28;20038;-77
2022/10/08 13:02:23;;;;;;;8.75;3.75;;;;;;;;;;4958892;28;20519;-79
2022/10/08 13:04:49;;;;;;;7.57;3.80;;;;;;;;;;4958708;28;20046;-77
2022/10/08 13:07:28;;;;;;;5.72;3.08;;;;;;;;;;4974538;28;20038;-78
2022/10/08 13:09:55;;;;;;;3.88;2.55;;;;;;;;;;4990624;28;20049;-78
2022/10/08 13:12:21;;;;;;;4.60;2.63;;;;;;;;;;4992091;28;20042;-78
2022/10/08 13:14:56;;;;;;;6.20;3.17;;;;;;;;;;4974538;28;20042;-78
2022/10/08 13:17:29;;;;;;;5.97;3.75;;;;;;;;;;4992221;28;20510;-78
2022/10/08 13:20:10;;;;;;;13.95;5.95;;;;;;;;;;4974340;28;20069;-78
2022/10/08 13:22:36;;;;;;;4.30;3.13;;;;;;;;;;4991421;28;20050;-77
2022/10/08 13:25:02;;;;;;;5.15;2.35;;;;;;;;;;4991599;28;20047;-78
2022/10/08 13:27:28;;;;;;;8.43;3.00;;;;;;;;;;4991529;28;20042;-77
2022/10/08 13:29:55;;;;;;;4.25;3.00;;;;;;;;;;4974716;28;20511;-78
2022/10/08 13:32:22;;;;;;;9.98;5.18;;;;;;;;;;4974414;28;20050;-79
2022/10/08 13:34:48;;;;;;;8.82;4.43;;;;;;;;;;4974063;28;20077;-77
2022/10/08 13:37:15;;;;;;;8.57;4.20;;;;;;;;;;4957673;28;20540;-78
2022/10/08 13:39:42;;;;;;;7.45;3.63;;;;;;;;;;4974393;28;20072;-78
2022/10/08 13:42:18;;;;;;;7.25;3.75;;;;;;;;;;4998324;28;20475;-78
2022/10/08 13:44:44;;;;;;;8.05;3.67;;;;;;;;;;4977015;28;20038;-78
2022/10/08 13:47:11;;;;;;;6.72;3.33;;;;;;;;;;4991572;28;20053;-77
2022/10/08 13:49:36;;;;;;;7.63;3.90;;;;;;;;;;4973878;28;20046;-78
2022/10/08 13:52:02;;;;;;;5.22;3.72;;;;;;;;;;4973635;28;20051;-77
2022/10/08 13:54:29;;;;;;;6.82;2.88;;;;;;;;;;4990982;28;20061;-78
2022/10/08 13:56:55;;;;;;;7.10;3.53;;;;;;;;;;4973342;28;20056;-78
2022/10/08 13:59:21;;;;;;;9.80;5.13;;;;;;;;;;4991002;28;20038;-78
2022/10/08 14:01:48;;;;;;;6.15;3.67;;;;;;;;;;4973510;28;20144;-79
2022/10/08 14:04:13;;;;;;;5.05;4.00;;;;;;;;;;4990669;28;20034;-77
2022/10/08 14:06:40;;;;;;;8.63;3.83;;;;;;;;;;4973321;28;20056;-77
2022/10/08 14:09:06;;;;;;;6.53;3.60;;;;;;;;;;4989446;28;20036;-77
2022/10/08 14:11:31;;;;;;;8.45;3.45;;;;;;;;;;4990879;28;20057;-77
2022/10/08 14:13:57;;;;;;;4.63;4.13;;;;;;;;;;4973117;28;20038;-77
2022/10/08 14:16:23;;;;;;;7.20;4.90;;;;;;;;;;4990588;28;20049;-78
2022/10/08 14:18:49;;;;;;;9.38;5.75;;;;;;;;;;4957138;28;20584;-77
2022/10/08 14:21:15;;;;;;;15.20;8.40;;;;;;;;;;4990383;28;20054;-77
2022/10/08 14:23:41;;;;;;;10.63;6.25;;;;;;;;;;4973408;28;20530;-77
2022/10/08 14:26:09;;;;;;;8.70;4.30;;;;;;;;;;4957185;28;20084;-78
2022/10/08 14:28:35;;;;;;;10.95;4.50;;;;;;;;;;4973363;28;20104;-77
2022/10/08 14:31:01;;;;;;;12.00;4.60;;;;;;;;;;4989286;28;20511;-77
2022/10/08 14:33:27;;;;;;;8.48;5.60;;;;;;;;;;4973333;28;20040;-77
2022/10/08 14:35:53;;;;;;;7.72;5.40;;;;;;;;;;4990646;28;20144;-77
2022/10/08 14:38:19;;;;;;;12.45;5.80;;;;;;;;;;4989024;28;20038;-77
2022/10/08 14:40:45;;;;;;;9.50;4.05;;;;;;;;;;4990380;28;20100;-78
2022/10/08 14:43:11;;;;;;;8.23;4.32;;;;;;;;;;4990193;28;20042;-77
2022/10/08 14:45:37;;;;;;;8.57;5.07;;;;;;;;;;4990418;28;20050;-77
2022/10/08 14:48:03;;;;;;;12.25;7.10;;;;;;;;;;4989679;28;20030;-78
2022/10/08 14:50:29;;;;;;;9.93;6.72;;;;;;;;;;4972588;28;20069;-77
2022/10/08 14:52:55;;;;;;;9.30;6.15;;;;;;;;;;4972513;28;20172;-78
2022/10/08 14:55:21;;;;;;;7.70;4.63;;;;;;;;;;4972732;28;20486;-78
2022/10/08 14:57:47;;;;;;;8.45;5.13;;;;;;;;;;4972922;28;20121;-77
2022/10/08 15:00:13;;;;;;;9.80;5.50;;;;;;;;;;4956393;28;20097;-78
2022/10/08 15:02:39;;;;;;;11.18;5.43;;;;;;;;;;4956840;28;20145;-77